Weather at Dublin Airport

Public forecast

Using degrees Celsius for public forecast. Weather courtesy of forecast.io.

Current aviation weather report (METAR) for Dublin Airport

Retrieved 2022/05/23 09:00 UTC (17 minutes ago):

EIDW 230900Z 30010KT 9999 FEW013 SCT018 BKN035 12/08 Q1003 NOSIG

Aviation forecast (TAF) for Dublin Airport

Retrieved 2022/05/23 06:13 UTC (3 hours ago):

TAF EIDW 230500Z 2306/2406 30010KT 9999 SCT015 BKN030 PROB40 TEMPO 2306/2309 BKN009 TEMPO 2309/2320 -SHRA SCT018CB PROB40 TEMPO 2311/2318 SHRA